sensor_id;sensor_type;location;lat;lon;timestamp;temperature;humidity
68274;SHT30;55104;47.356;19.448;2022-07-22T00:01:14;23.74;40.69
68274;SHT30;55104;47.356;19.448;2022-07-22T00:04:16;23.66;40.83
68274;SHT30;55104;47.356;19.448;2022-07-22T00:07:18;23.68;40.96
68274;SHT30;55104;47.356;19.448;2022-07-22T00:10:20;23.61;41.53
68274;SHT30;55104;47.356;19.448;2022-07-22T00:13:22;23.59;41.79
68274;SHT30;55104;47.356;19.448;2022-07-22T00:16:24;23.53;41.88
68274;SHT30;55104;47.356;19.448;2022-07-22T00:19:26;23.57;41.16
68274;SHT30;55104;47.356;19.448;2022-07-22T00:22:28;23.60;40.75
68274;SHT30;55104;47.356;19.448;2022-07-22T00:25:30;23.57;40.95
68274;SHT30;55104;47.356;19.448;2022-07-22T00:28:33;23.56;40.97
68274;SHT30;55104;47.356;19.448;2022-07-22T00:31:35;23.57;40.70
68274;SHT30;55104;47.356;19.448;2022-07-22T00:34:37;23.63;40.59
68274;SHT30;55104;47.356;19.448;2022-07-22T00:37:39;23.64;40.89
68274;SHT30;55104;47.356;19.448;2022-07-22T00:40:41;23.59;40.93
68274;SHT30;55104;47.356;19.448;2022-07-22T00:44:06;23.59;41.22
68274;SHT30;55104;47.356;19.448;2022-07-22T00:47:09;23.49;41.52
68274;SHT30;55104;47.356;19.448;2022-07-22T00:50:11;23.40;42.02
68274;SHT30;55104;47.356;19.448;2022-07-22T00:53:16;23.33;42.11
68274;SHT30;55104;47.356;19.448;2022-07-22T00:56:19;23.27;41.99
68274;SHT30;55104;47.356;19.448;2022-07-22T00:59:22;23.26;41.51
68274;SHT30;55104;47.356;19.448;2022-07-22T01:02:24;23.22;41.83
68274;SHT30;55104;47.356;19.448;2022-07-22T01:05:26;23.18;41.32
68274;SHT30;55104;47.356;19.448;2022-07-22T01:08:28;23.12;40.82
68274;SHT30;55104;47.356;19.448;2022-07-22T01:11:31;23.04;41.09
68274;SHT30;55104;47.356;19.448;2022-07-22T01:14:33;22.94;41.82
68274;SHT30;55104;47.356;19.448;2022-07-22T01:17:35;22.85;42.45
68274;SHT30;55104;47.356;19.448;2022-07-22T01:20:38;22.71;43.27
68274;SHT30;55104;47.356;19.448;2022-07-22T01:23:42;22.56;44.40
68274;SHT30;55104;47.356;19.448;2022-07-22T01:26:44;22.41;44.51
68274;SHT30;55104;47.356;19.448;2022-07-22T01:29:46;22.36;44.59
68274;SHT30;55104;47.356;19.448;2022-07-22T01:32:48;22.20;45.30
68274;SHT30;55104;47.356;19.448;2022-07-22T01:35:51;22.10;45.59
68274;SHT30;55104;47.356;19.448;2022-07-22T01:38:54;22.02;46.14
68274;SHT30;55104;47.356;19.448;2022-07-22T01:41:56;21.92;46.40
68274;SHT30;55104;47.356;19.448;2022-07-22T01:44:59;21.81;46.28
68274;SHT30;55104;47.356;19.448;2022-07-22T01:48:04;21.71;46.62
68274;SHT30;55104;47.356;19.448;2022-07-22T01:51:06;21.62;46.91
68274;SHT30;55104;47.356;19.448;2022-07-22T01:54:10;21.57;46.24
68274;SHT30;55104;47.356;19.448;2022-07-22T01:57:12;21.53;46.83
68274;SHT30;55104;47.356;19.448;2022-07-22T02:00:20;21.46;47.52
68274;SHT30;55104;47.356;19.448;2022-07-22T02:03:22;21.39;47.58
68274;SHT30;55104;47.356;19.448;2022-07-22T02:06:24;21.33;47.26
68274;SHT30;55104;47.356;19.448;2022-07-22T02:09:30;21.31;47.68
68274;SHT30;55104;47.356;19.448;2022-07-22T02:12:32;21.24;48.04
68274;SHT30;55104;47.356;19.448;2022-07-22T02:15:34;21.34;46.52
68274;SHT30;55104;47.356;19.448;2022-07-22T02:18:37;21.41;46.35
68274;SHT30;55104;47.356;19.448;2022-07-22T02:21:38;21.50;46.66
68274;SHT30;55104;47.356;19.448;2022-07-22T02:24:42;21.43;46.53
68274;SHT30;55104;47.356;19.448;2022-07-22T02:27:49;21.40;47.57
68274;SHT30;55104;47.356;19.448;2022-07-22T02:30:52;21.34;47.64
68274;SHT30;55104;47.356;19.448;2022-07-22T02:33:54;21.26;47.84
68274;SHT30;55104;47.356;19.448;2022-07-22T02:37:00;21.27;47.35
68274;SHT30;55104;47.356;19.448;2022-07-22T02:40:04;21.41;46.83
68274;SHT30;55104;47.356;19.448;2022-07-22T02:43:06;21.33;47.20
68274;SHT30;55104;47.356;19.448;2022-07-22T02:46:09;21.24;47.67
68274;SHT30;55104;47.356;19.448;2022-07-22T02:49:11;21.13;47.87
68274;SHT30;55104;47.356;19.448;2022-07-22T02:52:13;21.06;48.30
68274;SHT30;55104;47.356;19.448;2022-07-22T02:55:16;20.93;49.05
68274;SHT30;55104;47.356;19.448;2022-07-22T02:58:18;20.88;49.31
68274;SHT30;55104;47.356;19.448;2022-07-22T03:01:21;20.74;49.67
68274;SHT30;55104;47.356;19.448;2022-07-22T03:04:28;20.67;49.90
68274;SHT30;55104;47.356;19.448;2022-07-22T03:07:31;20.63;50.42
68274;SHT30;55104;47.356;19.448;2022-07-22T03:10:34;20.54;51.23
68274;SHT30;55104;47.356;19.448;2022-07-22T03:13:36;20.52;51.13
68274;SHT30;55104;47.356;19.448;2022-07-22T03:16:38;20.51;51.00
68274;SHT30;55104;47.356;19.448;2022-07-22T03:19:41;20.50;50.80
68274;SHT30;55104;47.356;19.448;2022-07-22T03:22:42;20.43;51.28
68274;SHT30;55104;47.356;19.448;2022-07-22T03:25:45;20.38;51.56
68274;SHT30;55104;47.356;19.448;2022-07-22T03:28:47;20.40;51.67
68274;SHT30;55104;47.356;19.448;2022-07-22T03:31:49;20.41;51.77
68274;SHT30;55104;47.356;19.448;2022-07-22T03:35:01;20.48;49.56
68274;SHT30;55104;47.356;19.448;2022-07-22T03:38:08;20.64;50.68
68274;SHT30;55104;47.356;19.448;2022-07-22T03:41:11;20.78;48.13
68274;SHT30;55104;47.356;19.448;2022-07-22T03:44:14;20.99;47.69
68274;SHT30;55104;47.356;19.448;2022-07-22T03:47:18;21.18;46.94
68274;SHT30;55104;47.356;19.448;2022-07-22T03:50:21;21.46;45.74
68274;SHT30;55104;47.356;19.448;2022-07-22T03:53:23;21.69;44.78
68274;SHT30;55104;47.356;19.448;2022-07-22T03:56:25;21.94;44.23
68274;SHT30;55104;47.356;19.448;2022-07-22T03:59:27;22.10;44.01
68274;SHT30;55104;47.356;19.448;2022-07-22T04:02:29;22.32;43.49
68274;SHT30;55104;47.356;19.448;2022-07-22T04:05:32;22.40;43.28
68274;SHT30;55104;47.356;19.448;2022-07-22T04:08:34;22.61;42.67
68274;SHT30;55104;47.356;19.448;2022-07-22T04:11:37;22.75;42.67
68274;SHT30;55104;47.356;19.448;2022-07-22T04:14:39;22.85;42.17
68274;SHT30;55104;47.356;19.448;2022-07-22T04:17:42;22.96;42.14
68274;SHT30;55104;47.356;19.448;2022-07-22T04:20:44;23.05;42.43
68274;SHT30;55104;47.356;19.448;2022-07-22T04:24:02;23.23;41.69
68274;SHT30;55104;47.356;19.448;2022-07-22T04:27:05;23.36;41.03
68274;SHT30;55104;47.356;19.448;2022-07-22T04:30:09;23.50;40.69
68274;SHT30;55104;47.356;19.448;2022-07-22T04:33:13;23.73;40.23
68274;SHT30;55104;47.356;19.448;2022-07-22T04:36:16;23.82;40.07
68274;SHT30;55104;47.356;19.448;2022-07-22T04:39:19;23.93;40.26
68274;SHT30;55104;47.356;19.448;2022-07-22T04:42:29;24.05;39.95
68274;SHT30;55104;47.356;19.448;2022-07-22T04:45:31;24.19;39.66
68274;SHT30;55104;47.356;19.448;2022-07-22T04:48:34;24.35;39.48
68274;SHT30;55104;47.356;19.448;2022-07-22T04:51:36;24.48;39.72
68274;SHT30;55104;47.356;19.448;2022-07-22T04:54:42;24.61;38.67
68274;SHT30;55104;47.356;19.448;2022-07-22T04:57:44;24.76;38.45
68274;SHT30;55104;47.356;19.448;2022-07-22T05:00:48;24.87;38.33
68274;SHT30;55104;47.356;19.448;2022-07-22T05:03:50;25.03;37.89
68274;SHT30;55104;47.356;19.448;2022-07-22T05:06:54;25.15;37.52
68274;SHT30;55104;47.356;19.448;2022-07-22T05:09:56;25.36;37.80
68274;SHT30;55104;47.356;19.448;2022-07-22T05:12:59;25.43;37.15
68274;SHT30;55104;47.356;19.448;2022-07-22T05:16:05;25.50;37.24
68274;SHT30;55104;47.356;19.448;2022-07-22T05:19:09;25.62;37.15
68274;SHT30;55104;47.356;19.448;2022-07-22T05:22:13;25.79;36.65
68274;SHT30;55104;47.356;19.448;2022-07-22T05:25:15;25.91;36.46
68274;SHT30;55104;47.356;19.448;2022-07-22T05:28:18;26.04;35.32
68274;SHT30;55104;47.356;19.448;2022-07-22T05:31:22;26.20;35.79
68274;SHT30;55104;47.356;19.448;2022-07-22T05:34:24;26.48;34.50
68274;SHT30;55104;47.356;19.448;2022-07-22T05:37:28;26.70;34.10
68274;SHT30;55104;47.356;19.448;2022-07-22T05:40:32;27.11;33.63
68274;SHT30;55104;47.356;19.448;2022-07-22T05:43:34;27.42;33.04
68274;SHT30;55104;47.356;19.448;2022-07-22T05:46:39;27.89;32.17
68274;SHT30;55104;47.356;19.448;2022-07-22T05:49:41;28.88;30.92
68274;SHT30;55104;47.356;19.448;2022-07-22T05:52:46;29.61;29.79
68274;SHT30;55104;47.356;19.448;2022-07-22T05:55:48;30.24;29.05
68274;SHT30;55104;47.356;19.448;2022-07-22T05:58:51;30.78;27.96
68274;SHT30;55104;47.356;19.448;2022-07-22T06:01:53;30.98;27.75
68274;SHT30;55104;47.356;19.448;2022-07-22T06:05:13;30.90;27.55
68274;SHT30;55104;47.356;19.448;2022-07-22T06:08:36;30.92;27.14
68274;SHT30;55104;47.356;19.448;2022-07-22T06:11:38;30.82;26.63
68274;SHT30;55104;47.356;19.448;2022-07-22T06:14:40;30.82;26.88
68274;SHT30;55104;47.356;19.448;2022-07-22T06:17:42;30.72;26.71
68274;SHT30;55104;47.356;19.448;2022-07-22T06:20:45;30.62;27.28
68274;SHT30;55104;47.356;19.448;2022-07-22T06:23:47;30.48;27.05
68274;SHT30;55104;47.356;19.448;2022-07-22T06:26:51;30.05;28.07
68274;SHT30;55104;47.356;19.448;2022-07-22T06:29:53;29.38;27.88
68274;SHT30;55104;47.356;19.448;2022-07-22T06:32:56;29.38;28.29
68274;SHT30;55104;47.356;19.448;2022-07-22T06:35:59;29.50;28.19
68274;SHT30;55104;47.356;19.448;2022-07-22T06:39:03;29.61;27.87
68274;SHT30;55104;47.356;19.448;2022-07-22T06:42:26;29.88;28.21
68274;SHT30;55104;47.356;19.448;2022-07-22T06:45:47;29.97;27.64
68274;SHT30;55104;47.356;19.448;2022-07-22T06:49:06;29.90;27.30
68274;SHT30;55104;47.356;19.448;2022-07-22T06:52:14;30.10;27.38
68274;SHT30;55104;47.356;19.448;2022-07-22T06:55:17;30.03;28.01
68274;SHT30;55104;47.356;19.448;2022-07-22T06:58:30;30.21;28.90
68274;SHT30;55104;47.356;19.448;2022-07-22T07:01:33;30.09;27.50
68274;SHT30;55104;47.356;19.448;2022-07-22T07:04:35;30.37;27.67
68274;SHT30;55104;47.356;19.448;2022-07-22T07:07:37;30.71;27.63
68274;SHT30;55104;47.356;19.448;2022-07-22T07:10:40;30.64;26.88
68274;SHT30;55104;47.356;19.448;2022-07-22T07:13:46;30.83;28.39
68274;SHT30;55104;47.356;19.448;2022-07-22T07:16:48;30.93;26.50
68274;SHT30;55104;47.356;19.448;2022-07-22T07:19:51;30.86;25.54
68274;SHT30;55104;47.356;19.448;2022-07-22T07:22:53;30.99;27.01
68274;SHT30;55104;47.356;19.448;2022-07-22T07:25:57;31.00;25.48
68274;SHT30;55104;47.356;19.448;2022-07-22T07:28:59;31.07;25.42
68274;SHT30;55104;47.356;19.448;2022-07-22T07:32:05;31.26;24.90
68274;SHT30;55104;47.356;19.448;2022-07-22T07:35:08;31.30;26.28
68274;SHT30;55104;47.356;19.448;2022-07-22T07:38:10;31.34;25.80
68274;SHT30;55104;47.356;19.448;2022-07-22T07:41:16;31.88;26.39
68274;SHT30;55104;47.356;19.448;2022-07-22T07:44:22;31.85;27.07
68274;SHT30;55104;47.356;19.448;2022-07-22T07:47:24;31.70;25.31
68274;SHT30;55104;47.356;19.448;2022-07-22T07:50:26;31.38;25.20
68274;SHT30;55104;47.356;19.448;2022-07-22T07:53:29;31.51;26.06
68274;SHT30;55104;47.356;19.448;2022-07-22T07:56:32;32.01;26.60
68274;SHT30;55104;47.356;19.448;2022-07-22T07:59:34;32.25;25.98
68274;SHT30;55104;47.356;19.448;2022-07-22T08:02:37;32.32;26.33
68274;SHT30;55104;47.356;19.448;2022-07-22T08:05:41;32.63;26.34
68274;SHT30;55104;47.356;19.448;2022-07-22T08:08:50;32.53;24.78
68274;SHT30;55104;47.356;19.448;2022-07-22T08:12:04;32.67;25.63
68274;SHT30;55104;47.356;19.448;2022-07-22T08:15:32;32.59;26.91
68274;SHT30;55104;47.356;19.448;2022-07-22T08:18:40;32.94;25.75
68274;SHT30;55104;47.356;19.448;2022-07-22T08:21:43;32.82;24.57
68274;SHT30;55104;47.356;19.448;2022-07-22T08:24:55;32.82;24.68
68274;SHT30;55104;47.356;19.448;2022-07-22T08:28:01;33.23;25.78
68274;SHT30;55104;47.356;19.448;2022-07-22T08:31:04;33.33;26.32
68274;SHT30;55104;47.356;19.448;2022-07-22T08:34:07;33.42;23.60
68274;SHT30;55104;47.356;19.448;2022-07-22T08:37:09;33.59;24.67
68274;SHT30;55104;47.356;19.448;2022-07-22T08:40:12;33.62;24.31
68274;SHT30;55104;47.356;19.448;2022-07-22T08:43:14;34.14;25.47
68274;SHT30;55104;47.356;19.448;2022-07-22T08:46:16;33.91;24.00
68274;SHT30;55104;47.356;19.448;2022-07-22T08:49:38;34.02;24.25
68274;SHT30;55104;47.356;19.448;2022-07-22T08:52:54;34.32;24.90
68274;SHT30;55104;47.356;19.448;2022-07-22T08:55:56;34.05;24.01
68274;SHT30;55104;47.356;19.448;2022-07-22T08:58:58;34.11;25.17
68274;SHT30;55104;47.356;19.448;2022-07-22T09:02:04;34.19;24.42
68274;SHT30;55104;47.356;19.448;2022-07-22T09:05:11;33.82;24.05
68274;SHT30;55104;47.356;19.448;2022-07-22T09:08:56;33.96;24.29
68274;SHT30;55104;47.356;19.448;2022-07-22T09:12:30;34.48;24.73
68274;SHT30;55104;47.356;19.448;2022-07-22T09:15:53;34.78;24.70
68274;SHT30;55104;47.356;19.448;2022-07-22T09:19:34;34.80;23.48
68274;SHT30;55104;47.356;19.448;2022-07-22T09:22:56;34.98;23.46
68274;SHT30;55104;47.356;19.448;2022-07-22T09:26:00;34.41;23.60
68274;SHT30;55104;47.356;19.448;2022-07-22T09:29:19;34.87;23.10
68274;SHT30;55104;47.356;19.448;2022-07-22T09:32:46;35.13;24.75
68274;SHT30;55104;47.356;19.448;2022-07-22T09:36:08;35.27;23.08
68274;SHT30;55104;47.356;19.448;2022-07-22T09:39:27;35.01;22.59
68274;SHT30;55104;47.356;19.448;2022-07-22T09:42:47;35.44;23.37
68274;SHT30;55104;47.356;19.448;2022-07-22T09:45:52;35.78;23.25
68274;SHT30;55104;47.356;19.448;2022-07-22T09:49:36;35.53;21.80
68274;SHT30;55104;47.356;19.448;2022-07-22T09:53:00;35.72;22.36
68274;SHT30;55104;47.356;19.448;2022-07-22T09:56:06;35.61;21.69
68274;SHT30;55104;47.356;19.448;2022-07-22T09:59:10;35.76;22.88
68274;SHT30;55104;47.356;19.448;2022-07-22T10:02:16;36.03;23.04
68274;SHT30;55104;47.356;19.448;2022-07-22T10:05:23;36.21;21.74
68274;SHT30;55104;47.356;19.448;2022-07-22T10:08:28;36.17;22.30
68274;SHT30;55104;47.356;19.448;2022-07-22T10:11:32;36.44;21.58
68274;SHT30;55104;47.356;19.448;2022-07-22T10:14:35;36.54;20.63
68274;SHT30;55104;47.356;19.448;2022-07-22T10:17:46;36.61;20.44
68274;SHT30;55104;47.356;19.448;2022-07-22T10:21:03;36.93;22.53
68274;SHT30;55104;47.356;19.448;2022-07-22T10:24:08;36.92;21.07
68274;SHT30;55104;47.356;19.448;2022-07-22T10:27:15;36.93;22.13
68274;SHT30;55104;47.356;19.448;2022-07-22T10:30:20;37.15;23.64
68274;SHT30;55104;47.356;19.448;2022-07-22T10:33:29;37.50;22.24
68274;SHT30;55104;47.356;19.448;2022-07-22T10:36:32;37.60;22.36
68274;SHT30;55104;47.356;19.448;2022-07-22T10:39:35;37.71;21.61
68274;SHT30;55104;47.356;19.448;2022-07-22T10:46:02;37.60;22.20
68274;SHT30;55104;47.356;19.448;2022-07-22T10:49:10;37.89;21.68
68274;SHT30;55104;47.356;19.448;2022-07-22T10:52:13;38.02;21.14
68274;SHT30;55104;47.356;19.448;2022-07-22T10:55:21;38.12;21.68
68274;SHT30;55104;47.356;19.448;2022-07-22T11:01:36;38.01;21.74
68274;SHT30;55104;47.356;19.448;2022-07-22T11:04:38;37.79;22.13
68274;SHT30;55104;47.356;19.448;2022-07-22T11:07:45;37.33;21.71
68274;SHT30;55104;47.356;19.448;2022-07-22T11:10:50;37.57;23.10
68274;SHT30;55104;47.356;19.448;2022-07-22T11:13:53;37.37;21.17
68274;SHT30;55104;47.356;19.448;2022-07-22T11:17:11;37.44;22.30
68274;SHT30;55104;47.356;19.448;2022-07-22T11:20:15;37.41;21.54
68274;SHT30;55104;47.356;19.448;2022-07-22T11:23:17;37.78;21.73
68274;SHT30;55104;47.356;19.448;2022-07-22T11:26:43;37.68;21.80
68274;SHT30;55104;47.356;19.448;2022-07-22T11:29:49;37.82;22.04
68274;SHT30;55104;47.356;19.448;2022-07-22T11:32:52;37.96;22.67
68274;SHT30;55104;47.356;19.448;2022-07-22T11:36:06;37.95;21.60
68274;SHT30;55104;47.356;19.448;2022-07-22T11:39:10;38.11;22.94
68274;SHT30;55104;47.356;19.448;2022-07-22T11:42:17;38.30;22.55
68274;SHT30;55104;47.356;19.448;2022-07-22T11:45:20;38.46;21.37
68274;SHT30;55104;47.356;19.448;2022-07-22T11:48:22;38.81;22.80
68274;SHT30;55104;47.356;19.448;2022-07-22T11:51:29;38.79;21.76
68274;SHT30;55104;47.356;19.448;2022-07-22T11:54:31;38.61;20.25
68274;SHT30;55104;47.356;19.448;2022-07-22T11:57:46;39.09;21.76
68274;SHT30;55104;47.356;19.448;2022-07-22T12:00:49;39.16;21.81
68274;SHT30;55104;47.356;19.448;2022-07-22T12:04:02;38.27;21.85
68274;SHT30;55104;47.356;19.448;2022-07-22T12:07:04;38.33;22.66
68274;SHT30;55104;47.356;19.448;2022-07-22T12:10:08;38.39;21.38
68274;SHT30;55104;47.356;19.448;2022-07-22T12:13:11;38.54;21.64
68274;SHT30;55104;47.356;19.448;2022-07-22T12:19:23;38.85;22.49
68274;SHT30;55104;47.356;19.448;2022-07-22T12:22:26;38.97;21.49
68274;SHT30;55104;47.356;19.448;2022-07-22T12:25:28;39.08;20.80
68274;SHT30;55104;47.356;19.448;2022-07-22T12:28:32;38.59;20.72
68274;SHT30;55104;47.356;19.448;2022-07-22T12:31:51;38.81;21.87
68274;SHT30;55104;47.356;19.448;2022-07-22T12:37:55;39.01;21.76
68274;SHT30;55104;47.356;19.448;2022-07-22T12:41:43;38.74;21.13
68274;SHT30;55104;47.356;19.448;2022-07-22T12:51:03;38.61;20.90
68274;SHT30;55104;47.356;19.448;2022-07-22T12:54:05;38.13;20.73
68274;SHT30;55104;47.356;19.448;2022-07-22T12:57:08;38.51;21.45
68274;SHT30;55104;47.356;19.448;2022-07-22T13:00:16;38.68;21.39
68274;SHT30;55104;47.356;19.448;2022-07-22T13:03:20;38.78;20.97
68274;SHT30;55104;47.356;19.448;2022-07-22T13:06:24;38.82;20.54
68274;SHT30;55104;47.356;19.448;2022-07-22T13:09:26;38.91;21.72
68274;SHT30;55104;47.356;19.448;2022-07-22T13:12:28;39.25;21.33
68274;SHT30;55104;47.356;19.448;2022-07-22T13:15:30;39.33;20.53
68274;SHT30;55104;47.356;19.448;2022-07-22T13:18:32;39.36;20.80
68274;SHT30;55104;47.356;19.448;2022-07-22T13:21:35;39.59;20.97
68274;SHT30;55104;47.356;19.448;2022-07-22T13:24:37;39.46;21.64
68274;SHT30;55104;47.356;19.448;2022-07-22T13:27:39;39.40;20.98
68274;SHT30;55104;47.356;19.448;2022-07-22T13:30:42;39.30;20.66
68274;SHT30;55104;47.356;19.448;2022-07-22T13:33:44;39.49;20.97
68274;SHT30;55104;47.356;19.448;2022-07-22T13:36:46;39.21;20.48
68274;SHT30;55104;47.356;19.448;2022-07-22T13:39:48;39.02;19.79
68274;SHT30;55104;47.356;19.448;2022-07-22T13:42:51;38.99;21.96
68274;SHT30;55104;47.356;19.448;2022-07-22T13:45:53;39.16;21.38
68274;SHT30;55104;47.356;19.448;2022-07-22T13:48:57;39.14;20.78
68274;SHT30;55104;47.356;19.448;2022-07-22T13:51:59;39.21;20.90
68274;SHT30;55104;47.356;19.448;2022-07-22T13:55:03;38.92;21.42
68274;SHT30;55104;47.356;19.448;2022-07-22T13:58:06;39.21;21.08
68274;SHT30;55104;47.356;19.448;2022-07-22T14:01:09;39.40;21.50
68274;SHT30;55104;47.356;19.448;2022-07-22T14:04:11;39.61;20.20
68274;SHT30;55104;47.356;19.448;2022-07-22T14:07:13;39.59;20.86
68274;SHT30;55104;47.356;19.448;2022-07-22T14:10:16;39.69;21.17
68274;SHT30;55104;47.356;19.448;2022-07-22T14:13:18;39.61;20.77
68274;SHT30;55104;47.356;19.448;2022-07-22T14:16:20;39.59;20.39
68274;SHT30;55104;47.356;19.448;2022-07-22T14:19:57;39.04;20.27
68274;SHT30;55104;47.356;19.448;2022-07-22T14:23:03;39.39;20.19
68274;SHT30;55104;47.356;19.448;2022-07-22T14:26:07;38.95;20.96
68274;SHT30;55104;47.356;19.448;2022-07-22T14:29:09;39.04;20.80
68274;SHT30;55104;47.356;19.448;2022-07-22T14:32:11;39.21;21.10
68274;SHT30;55104;47.356;19.448;2022-07-22T14:35:13;39.14;20.83
68274;SHT30;55104;47.356;19.448;2022-07-22T14:38:15;39.26;21.68
68274;SHT30;55104;47.356;19.448;2022-07-22T14:41:20;38.97;20.59
68274;SHT30;55104;47.356;19.448;2022-07-22T14:44:22;38.75;21.28
68274;SHT30;55104;47.356;19.448;2022-07-22T14:47:24;38.90;21.14
68274;SHT30;55104;47.356;19.448;2022-07-22T14:50:27;38.84;21.16
68274;SHT30;55104;47.356;19.448;2022-07-22T14:53:29;39.06;20.17
68274;SHT30;55104;47.356;19.448;2022-07-22T14:56:31;38.95;19.75
68274;SHT30;55104;47.356;19.448;2022-07-22T14:59:33;38.95;21.01
68274;SHT30;55104;47.356;19.448;2022-07-22T15:02:36;38.63;21.15
68274;SHT30;55104;47.356;19.448;2022-07-22T15:05:38;38.56;20.94
68274;SHT30;55104;47.356;19.448;2022-07-22T15:08:43;38.72;21.24
68274;SHT30;55104;47.356;19.448;2022-07-22T15:11:45;38.94;21.29
68274;SHT30;55104;47.356;19.448;2022-07-22T15:14:47;38.66;21.02
68274;SHT30;55104;47.356;19.448;2022-07-22T15:17:49;38.34;21.12
68274;SHT30;55104;47.356;19.448;2022-07-22T15:20:52;38.32;21.55
68274;SHT30;55104;47.356;19.448;2022-07-22T15:23:56;38.30;21.47
68274;SHT30;55104;47.356;19.448;2022-07-22T15:26:59;38.44;22.02
68274;SHT30;55104;47.356;19.448;2022-07-22T15:30:01;38.61;21.81
68274;SHT30;55104;47.356;19.448;2022-07-22T15:33:04;38.51;21.78
68274;SHT30;55104;47.356;19.448;2022-07-22T15:36:07;38.57;21.31
68274;SHT30;55104;47.356;19.448;2022-07-22T15:39:11;38.64;21.65
68274;SHT30;55104;47.356;19.448;2022-07-22T15:42:13;38.56;21.26
68274;SHT30;55104;47.356;19.448;2022-07-22T15:45:15;38.26;21.39
68274;SHT30;55104;47.356;19.448;2022-07-22T15:48:17;38.11;22.51
68274;SHT30;55104;47.356;19.448;2022-07-22T15:51:19;38.11;22.31
68274;SHT30;55104;47.356;19.448;2022-07-22T15:54:21;37.98;22.05
68274;SHT30;55104;47.356;19.448;2022-07-22T15:57:23;37.92;21.89
68274;SHT30;55104;47.356;19.448;2022-07-22T16:00:43;37.90;22.28
68274;SHT30;55104;47.356;19.448;2022-07-22T16:03:48;37.84;22.10
68274;SHT30;55104;47.356;19.448;2022-07-22T16:06:50;37.71;22.44
68274;SHT30;55104;47.356;19.448;2022-07-22T16:09:53;37.58;22.38
68274;SHT30;55104;47.356;19.448;2022-07-22T16:12:55;37.47;23.15
68274;SHT30;55104;47.356;19.448;2022-07-22T16:15:57;37.47;23.37
68274;SHT30;55104;47.356;19.448;2022-07-22T16:18:59;37.35;22.43
68274;SHT30;55104;47.356;19.448;2022-07-22T16:22:02;37.26;22.49
68274;SHT30;55104;47.356;19.448;2022-07-22T16:25:05;37.27;22.94
68274;SHT30;55104;47.356;19.448;2022-07-22T16:28:07;37.17;23.15
68274;SHT30;55104;47.356;19.448;2022-07-22T16:31:10;37.16;23.09
68274;SHT30;55104;47.356;19.448;2022-07-22T16:34:12;37.12;22.81
68274;SHT30;55104;47.356;19.448;2022-07-22T16:37:14;36.86;23.27
68274;SHT30;55104;47.356;19.448;2022-07-22T16:40:16;36.58;24.27
68274;SHT30;55104;47.356;19.448;2022-07-22T16:43:18;36.54;25.44
68274;SHT30;55104;47.356;19.448;2022-07-22T16:46:20;36.51;24.10
68274;SHT30;55104;47.356;19.448;2022-07-22T16:49:23;36.38;25.45
68274;SHT30;55104;47.356;19.448;2022-07-22T16:52:25;36.25;24.20
68274;SHT30;55104;47.356;19.448;2022-07-22T16:55:27;36.11;24.32
68274;SHT30;55104;47.356;19.448;2022-07-22T16:58:29;35.93;24.56
68274;SHT30;55104;47.356;19.448;2022-07-22T17:01:31;35.72;25.89
68274;SHT30;55104;47.356;19.448;2022-07-22T17:04:33;35.53;26.35
68274;SHT30;55104;47.356;19.448;2022-07-22T17:07:35;35.44;25.40
68274;SHT30;55104;47.356;19.448;2022-07-22T17:10:38;35.27;26.22
68274;SHT30;55104;47.356;19.448;2022-07-22T17:13:40;35.10;27.37
68274;SHT30;55104;47.356;19.448;2022-07-22T17:16:42;35.00;26.82
68274;SHT30;55104;47.356;19.448;2022-07-22T17:19:44;34.79;27.07
68274;SHT30;55104;47.356;19.448;2022-07-22T17:22:46;34.64;27.11
68274;SHT30;55104;47.356;19.448;2022-07-22T17:25:50;34.41;27.36
68274;SHT30;55104;47.356;19.448;2022-07-22T17:28:53;34.15;27.87
68274;SHT30;55104;47.356;19.448;2022-07-22T17:31:57;34.00;28.29
68274;SHT30;55104;47.356;19.448;2022-07-22T17:34:59;33.84;28.19
68274;SHT30;55104;47.356;19.448;2022-07-22T17:38:01;33.70;28.71
68274;SHT30;55104;47.356;19.448;2022-07-22T17:41:03;33.52;29.21
68274;SHT30;55104;47.356;19.448;2022-07-22T17:44:06;33.39;29.24
68274;SHT30;55104;47.356;19.448;2022-07-22T17:47:08;33.23;29.44
68274;SHT30;55104;47.356;19.448;2022-07-22T17:50:11;33.08;29.62
68274;SHT30;55104;47.356;19.448;2022-07-22T17:53:13;32.94;29.57
68274;SHT30;55104;47.356;19.448;2022-07-22T17:56:15;32.77;30.00
68274;SHT30;55104;47.356;19.448;2022-07-22T17:59:31;32.59;30.32
68274;SHT30;55104;47.356;19.448;2022-07-22T18:02:34;32.44;30.61
68274;SHT30;55104;47.356;19.448;2022-07-22T18:05:36;32.29;31.10
68274;SHT30;55104;47.356;19.448;2022-07-22T18:08:38;32.09;32.30
68274;SHT30;55104;47.356;19.448;2022-07-22T18:11:40;31.84;33.19
68274;SHT30;55104;47.356;19.448;2022-07-22T18:14:42;31.65;34.01
68274;SHT30;55104;47.356;19.448;2022-07-22T18:17:50;31.51;34.39
68274;SHT30;55104;47.356;19.448;2022-07-22T18:20:52;31.37;34.38
68274;SHT30;55104;47.356;19.448;2022-07-22T18:23:54;31.19;35.84
68274;SHT30;55104;47.356;19.448;2022-07-22T18:26:57;31.00;35.82
68274;SHT30;55104;47.356;19.448;2022-07-22T18:30:00;30.89;35.92
68274;SHT30;55104;47.356;19.448;2022-07-22T18:33:02;30.75;36.49
68274;SHT30;55104;47.356;19.448;2022-07-22T18:36:06;30.61;37.02
68274;SHT30;55104;47.356;19.448;2022-07-22T18:39:08;30.48;37.44
68274;SHT30;55104;47.356;19.448;2022-07-22T18:42:10;30.30;37.71
68274;SHT30;55104;47.356;19.448;2022-07-22T18:45:13;30.16;38.33
68274;SHT30;55104;47.356;19.448;2022-07-22T18:48:15;29.96;38.81
68274;SHT30;55104;47.356;19.448;2022-07-22T18:51:18;29.85;38.70
68274;SHT30;55104;47.356;19.448;2022-07-22T18:54:27;29.69;39.66
68274;SHT30;55104;47.356;19.448;2022-07-22T18:57:29;29.58;40.34
68274;SHT30;55104;47.356;19.448;2022-07-22T19:00:32;29.37;41.25
68274;SHT30;55104;47.356;19.448;2022-07-22T19:03:35;29.16;40.81
68274;SHT30;55104;47.356;19.448;2022-07-22T19:06:37;29.00;41.48
68274;SHT30;55104;47.356;19.448;2022-07-22T19:09:39;28.83;42.70
68274;SHT30;55104;47.356;19.448;2022-07-22T19:12:41;28.70;43.66
68274;SHT30;55104;47.356;19.448;2022-07-22T19:15:43;28.52;42.26
68274;SHT30;55104;47.356;19.448;2022-07-22T19:18:46;28.34;43.05
68274;SHT30;55104;47.356;19.448;2022-07-22T19:21:48;28.24;42.83
68274;SHT30;55104;47.356;19.448;2022-07-22T19:24:50;28.13;44.44
68274;SHT30;55104;47.356;19.448;2022-07-22T19:27:53;28.03;44.28